Time;durP1;ratioP1;P1;durP2;ratioP2;P2;SDS_P1;SDS_P2;PMS_P1;PMS_P2;Temp;Humidity;BMP_temperature;BMP_pressure;BME280_temperature;BME280_humidity;BME280_pressure;Samples;Min_cycle;Max_cycle;Signal;HPM_P1;HPM_P2
2022/09/28 00:00:52;;;;;;;633.60;392.48;;;;;;;;;;5111261;27;20575;-76
2022/09/28 00:03:18;;;;;;;642.53;504.10;;;;;;;;;;5111381;28;20055;-76
2022/09/28 00:07:56;;;;;;;585.17;370.40;;;;;;;;;;5111481;27;20573;-75
2022/09/28 00:11:17;;;;;;;649.83;506.50;;;;;;;;;;5111864;27;20509;-75
2022/09/28 00:14:23;;;;;;;652.25;455.65;;;;;;;;;;5111703;27;20601;-74
2022/09/28 00:19:26;;;;;;;518.03;344.73;;;;;;;;;;5111379;27;20919;-75
2022/09/28 00:22:39;;;;;;;541.53;281.73;;;;;;;;;;5111251;27;20558;-75
2022/09/28 00:25:05;;;;;;;;;;;;;;;;;;5111826;28;20550;-75
2022/09/28 00:27:31;;;;;;;;;;;;;;;;;;5111761;28;20002;-75
2022/09/28 00:29:57;;;;;;;612.00;316.30;;;;;;;;;;5109850;28;20521;-75
2022/09/28 00:32:23;;;;;;;617.08;289.42;;;;;;;;;;5111161;28;20023;-75
2022/09/28 00:36:40;;;;;;;;;;;;;;;;;;5111653;27;20581;-76
2022/09/28 00:39:07;;;;;;;409.02;234.65;;;;;;;;;;5110261;28;20389;-75
2022/09/28 00:43:15;;;;;;;397.77;229.90;;;;;;;;;;5111335;27;20396;-75
2022/09/28 00:47:13;;;;;;;;;;;;;;;;;;5112692;27;20541;-74
2022/09/28 00:49:43;;;;;;;575.47;278.17;;;;;;;;;;5109634;28;20384;-75
2022/09/28 00:52:12;;;;;;;512.70;257.33;;;;;;;;;;5111493;28;20031;-75
2022/09/28 00:54:39;;;;;;;475.75;221.40;;;;;;;;;;5110410;28;20024;-75
2022/09/28 00:57:05;;;;;;;;;;;;;;;;;;5110454;28;20054;-75
2022/09/28 00:59:32;;;;;;;509.98;273.65;;;;;;;;;;5110735;28;20381;-74
2022/09/28 01:01:58;;;;;;;;;;;;;;;;;;5109964;28;20032;-76
2022/09/28 01:04:24;;;;;;;;;;;;;;;;;;5110950;28;20256;-75
2022/09/28 01:06:50;;;;;;;;;;;;;;;;;;5111216;28;19912;-75
2022/09/28 01:09:16;;;;;;;;;;;;;;;;;;5111236;28;19989;-74
2022/09/28 01:11:42;;;;;;;;;;;;;;;;;;5110863;28;19939;-75
2022/09/28 01:14:08;;;;;;;;;;;;;;;;;;5111171;28;19949;-75
2022/09/28 01:16:34;;;;;;;;;;;;;;;;;;5111035;28;19907;-75
2022/09/28 01:18:59;;;;;;;;;;;;;;;;;;5110818;28;19990;-75
2022/09/28 01:21:25;;;;;;;;;;;;;;;;;;5109713;28;20275;-75
2022/09/28 01:23:51;;;;;;;;;;;;;;;;;;5110959;28;19965;-75
2022/09/28 01:26:17;;;;;;;;;;;;;;;;;;5110446;28;19912;-74
2022/09/28 01:28:43;;;;;;;;;;;;;;;;;;5109970;28;19908;-74
2022/09/28 01:31:09;;;;;;;;;;;;;;;;;;5110852;28;19910;-75
2022/09/28 01:33:35;;;;;;;;;;;;;;;;;;5110422;28;20260;-76
2022/09/28 01:36:01;;;;;;;;;;;;;;;;;;5110739;28;19943;-76
2022/09/28 01:38:27;;;;;;;;;;;;;;;;;;5110370;28;19947;-75
2022/09/28 01:40:53;;;;;;;;;;;;;;;;;;5110753;28;19903;-75
2022/09/28 01:43:19;;;;;;;;;;;;;;;;;;5110483;28;19949;-74
2022/09/28 01:45:45;;;;;;;;;;;;;;;;;;5109964;28;19916;-74
2022/09/28 01:48:11;;;;;;;;;;;;;;;;;;5110419;28;19911;-75
2022/09/28 01:50:37;;;;;;;;;;;;;;;;;;5110443;28;19904;-75
2022/09/28 01:53:03;;;;;;;;;;;;;;;;;;5110145;28;19912;-75
2022/09/28 01:55:29;;;;;;;;;;;;;;;;;;5110336;28;20447;-75
2022/09/28 01:57:55;;;;;;;;;;;;;;;;;;5100473;28;20360;-75
2022/09/28 02:00:20;;;;;;;;;;;;;;;;;;5095068;28;19910;-75
2022/09/28 02:02:47;;;;;;;;;;;;;;;;;;5096772;28;19904;-76
2022/09/28 02:05:13;;;;;;;;;;;;;;;;;;5097112;28;19915;-75
2022/09/28 02:07:39;;;;;;;;;;;;;;;;;;5095066;28;19908;-76
2022/09/28 02:10:05;;;;;;;;;;;;;;;;;;5096823;28;19904;-75
2022/09/28 02:12:31;;;;;;;;;;;;;;;;;;5095363;28;19939;-75
2022/09/28 02:14:57;;;;;;;;;;;;;;;;;;5096211;28;19904;-75
2022/09/28 02:17:23;;;;;;;;;;;;;;;;;;5094431;28;19954;-74
2022/09/28 02:19:49;;;;;;;;;;;;;;;;;;5096490;28;19904;-76
2022/09/28 02:22:15;;;;;;;;;;;;;;;;;;5096039;28;19911;-75
2022/09/28 02:24:41;;;;;;;;;;;;;;;;;;5096357;28;19911;-74
2022/09/28 02:27:07;;;;;;;;;;;;;;;;;;5096174;28;19912;-75
2022/09/28 02:29:33;;;;;;;;;;;;;;;;;;5095877;28;19903;-75
2022/09/28 02:31:59;;;;;;;;;;;;;;;;;;5096191;28;19957;-75
2022/09/28 02:34:25;;;;;;;;;;;;;;;;;;5094696;28;20359;-76
2022/09/28 02:36:51;;;;;;;;;;;;;;;;;;5095644;28;19908;-75
2022/09/28 02:39:17;;;;;;;;;;;;;;;;;;5095985;28;19934;-75
2022/09/28 02:41:43;;;;;;;;;;;;;;;;;;5095646;28;19910;-75
2022/09/28 02:44:09;;;;;;;;;;;;;;;;;;5095908;28;19999;-75
2022/09/28 02:46:35;;;;;;;;;;;;;;;;;;5095761;28;19916;-75
2022/09/28 02:49:01;;;;;;;;;;;;;;;;;;5093836;28;19957;-75
2022/09/28 02:51:27;;;;;;;;;;;;;;;;;;5094485;28;19904;-75
2022/09/28 02:53:53;;;;;;;;;;;;;;;;;;5094479;28;19911;-75
2022/09/28 02:56:19;;;;;;;;;;;;;;;;;;5095446;28;19904;-75
2022/09/28 02:59:04;;;;;;;126.68;117.25;;;;;;;;;;5095432;28;19904;-76
2022/09/28 03:01:37;;;;;;;515.30;277.17;;;;;;;;;;5095274;28;20028;-75
2022/09/28 03:04:11;;;;;;;402.45;254.80;;;;;;;;;;5094302;28;20488;-75
2022/09/28 03:06:40;;;;;;;349.45;235.25;;;;;;;;;;5095149;28;20110;-76
2022/09/28 03:09:09;;;;;;;266.38;203.52;;;;;;;;;;5094151;28;20031;-76
2022/09/28 03:11:53;;;;;;;409.83;258.58;;;;;;;;;;5094594;28;20158;-75
2022/09/28 03:14:19;;;;;;;;;;;;;;;;;;5093999;28;20024;-75
2022/09/28 03:16:45;;;;;;;;;;;;;;;;;;5095314;28;19904;-76
2022/09/28 03:19:11;;;;;;;;;;;;;;;;;;5095452;28;20001;-75
2022/09/28 03:21:37;;;;;;;;;;;;;;;;;;5095271;28;19904;-75
2022/09/28 03:24:04;;;;;;;;;;;;;;;;;;5093490;28;19904;-75
2022/09/28 03:26:30;;;;;;;;;;;;;;;;;;5093700;28;20324;-75
2022/09/28 03:28:56;;;;;;;;;;;;;;;;;;5093793;28;19946;-75
2022/09/28 03:31:22;;;;;;;;;;;;;;;;;;5094528;28;19911;-75
2022/09/28 03:33:48;;;;;;;;;;;;;;;;;;5093748;28;20356;-75
2022/09/28 03:36:14;;;;;;;;;;;;;;;;;;5095080;28;20317;-76
2022/09/28 03:38:40;;;;;;;;;;;;;;;;;;5093147;28;19910;-76
2022/09/28 03:41:06;;;;;;;;;;;;;;;;;;5094917;28;19998;-76
2022/09/28 03:43:32;;;;;;;;;;;;;;;;;;5094882;28;19904;-76
2022/09/28 03:45:58;;;;;;;;;;;;;;;;;;5094452;28;20372;-76
2022/09/28 03:48:24;;;;;;;;;;;;;;;;;;5094839;28;19908;-76
2022/09/28 03:50:50;;;;;;;;;;;;;;;;;;5094768;28;19927;-76
2022/09/28 03:53:16;;;;;;;;;;;;;;;;;;5094362;28;19991;-77
2022/09/28 03:55:42;;;;;;;;;;;;;;;;;;5094827;28;19935;-76
2022/09/28 03:58:08;;;;;;;;;;;;;;;;;;5094640;28;19904;-76
2022/09/28 04:00:34;;;;;;;;;;;;;;;;;;5094396;28;19942;-76
2022/09/28 04:03:00;;;;;;;;;;;;;;;;;;5094513;28;19904;-76
2022/09/28 04:05:26;;;;;;;;;;;;;;;;;;5094816;28;20369;-76
2022/09/28 04:07:52;;;;;;;;;;;;;;;;;;5094133;28;19908;-76
2022/09/28 04:10:18;;;;;;;;;;;;;;;;;;5094468;28;19904;-76
2022/09/28 04:12:44;;;;;;;;;;;;;;;;;;5094396;28;19914;-77
2022/09/28 04:15:10;;;;;;;;;;;;;;;;;;5094040;28;19904;-76
2022/09/28 04:17:37;;;;;;;;;;;;;;;;;;5094428;28;19999;-76
2022/09/28 04:20:03;;;;;;;;;;;;;;;;;;5092755;28;19904;-76
2022/09/28 04:22:29;;;;;;;;;;;;;;;;;;5094214;28;19998;-76
2022/09/28 04:24:55;;;;;;;;;;;;;;;;;;5094184;28;19935;-76
2022/09/28 04:30:06;;;;;;;;;;;;;;;;;;5094231;28;19910;-76
2022/09/28 04:32:32;;;;;;;;;;;;;;;;;;5094044;28;19904;-76
2022/09/28 04:34:57;;;;;;;;;;;;;;;;;;5093712;28;20355;-76
2022/09/28 04:37:23;;;;;;;;;;;;;;;;;;5093971;28;20310;-76
2022/09/28 04:39:49;;;;;;;;;;;;;;;;;;5093981;28;20422;-76
2022/09/28 04:42:15;;;;;;;;;;;;;;;;;;5091576;28;19911;-76
2022/09/28 04:44:41;;;;;;;;;;;;;;;;;;5091969;28;19904;-77
2022/09/28 04:47:07;;;;;;;;;;;;;;;;;;5091667;28;19923;-76
2022/09/28 04:49:35;;;;;;;;;;;;;;;;;;5091440;28;19990;-76
2022/09/28 04:52:01;;;;;;;;;;;;;;;;;;5091768;28;19908;-76
2022/09/28 04:54:27;;;;;;;;;;;;;;;;;;5092496;28;19911;-76
2022/09/28 04:56:54;;;;;;;;;;;;;;;;;;5091744;28;19904;-76
2022/09/28 04:59:20;;;;;;;;;;;;;;;;;;5094446;28;19908;-76
2022/09/28 05:01:46;;;;;;;;;;;;;;;;;;5092633;28;19904;-77
2022/09/28 05:04:12;;;;;;;;;;;;;;;;;;5092222;28;20317;-76
2022/09/28 05:06:38;;;;;;;;;;;;;;;;;;5093998;28;19916;-76
2022/09/28 05:09:04;;;;;;;;;;;;;;;;;;5094226;28;20379;-76
2022/09/28 05:11:30;;;;;;;;;;;;;;;;;;5088839;28;20261;-75
2022/09/28 05:13:56;;;;;;;;;;;;;;;;;;5082063;28;20366;-75
2022/09/28 05:16:23;;;;;;;;;;;;;;;;;;5077592;28;19908;-75
2022/09/28 05:18:49;;;;;;;;;;;;;;;;;;5075525;28;19994;-74
2022/09/28 05:21:18;;;;;;;;;;;;;;;;;;5089599;28;20352;-72
2022/09/28 05:23:44;;;;;;;;;;;;;;;;;;5090317;28;19908;-73
2022/09/28 05:26:10;;;;;;;;;;;;;;;;;;5072358;28;19922;-75
2022/09/28 05:28:36;;;;;;;;;;;;;;;;;;5072032;28;19990;-74
2022/09/28 05:31:02;;;;;;;;;;;;;;;;;;5072512;28;20006;-73
2022/09/28 05:33:28;;;;;;;;;;;;;;;;;;5079551;28;19961;-74
2022/09/28 05:35:54;;;;;;;163.88;148.68;;;;;;;;;;5091679;28;20914;-72
2022/09/28 05:38:20;;;;;;;;;;;;;;;;;;5079826;28;20032;-73
2022/09/28 05:40:46;;;;;;;296.70;221.07;;;;;;;;;;5090483;28;20939;-74
2022/09/28 05:43:13;;;;;;;137.85;126.97;;;;;;;;;;5113601;28;20102;-74
2022/09/28 05:45:39;;;;;;;;;;;;;;;;;;5103274;28;20119;-74
2022/09/28 05:48:05;;;;;;;173.15;156.25;;;;;;;;;;5090904;28;20426;-75
2022/09/28 05:50:32;;;;;;;146.55;134.05;;;;;;;;;;5090524;28;20087;-74
2022/09/28 05:52:58;;;;;;;;;;;;;;;;;;5092566;28;20059;-75
2022/09/28 05:55:24;;;;;;;265.53;206.10;;;;;;;;;;5092394;28;20381;-74
2022/09/28 05:57:51;;;;;;;616.10;306.05;;;;;;;;;;5094075;28;20402;-74
2022/09/28 06:00:17;;;;;;;349.08;234.70;;;;;;;;;;5094993;28;20016;-74
2022/09/28 06:02:43;;;;;;;194.23;173.25;;;;;;;;;;5088622;28;20024;-74
2022/09/28 06:06:39;;;;;;;615.10;311.67;;;;;;;;;;5067312;28;20422;-72
2022/09/28 06:09:05;;;;;;;588.53;306.10;;;;;;;;;;5065858;28;20044;-73
2022/09/28 06:12:22;;;;;;;714.70;346.60;;;;;;;;;;5063977;28;20490;-72
2022/09/28 06:14:48;;;;;;;659.42;336.73;;;;;;;;;;5047453;28;20025;-72
2022/09/28 06:17:14;;;;;;;615.72;313.83;;;;;;;;;;5044475;28;20050;-73
2022/09/28 06:19:40;;;;;;;619.03;323.65;;;;;;;;;;5044753;28;20029;-76
2022/09/28 06:22:07;;;;;;;607.30;313.77;;;;;;;;;;5045913;28;20029;-73
2022/09/28 06:24:55;;;;;;;662.15;361.08;;;;;;;;;;5066944;28;20454;-74
2022/09/28 06:27:24;;;;;;;662.40;334.35;;;;;;;;;;5067329;28;20093;-74
2022/09/28 06:30:41;;;;;;;776.47;523.33;;;;;;;;;;5107408;27;20457;-75
2022/09/28 06:33:09;;;;;;;756.13;476.33;;;;;;;;;;5106542;28;20030;-76
2022/09/28 06:37:17;;;;;;;711.70;375.63;;;;;;;;;;5128245;27;20313;-74
2022/09/28 06:39:47;;;;;;;701.08;363.58;;;;;;;;;;5106732;28;20020;-75
2022/09/28 06:42:41;;;;;;;720.70;398.05;;;;;;;;;;5066193;28;20395;-74
2022/09/28 06:50:31;;;;;;;729.83;382.33;;;;;;;;;;5108544;27;20139;-78
2022/09/28 06:52:57;;;;;;;751.42;410.10;;;;;;;;;;5088613;28;20099;-75
2022/09/28 06:55:24;;;;;;;713.70;390.85;;;;;;;;;;5088036;28;20032;-73
2022/09/28 06:57:57;;;;;;;739.08;399.25;;;;;;;;;;5088785;28;20021;-78
2022/09/28 07:00:24;;;;;;;740.90;392.27;;;;;;;;;;5088187;28;20036;-77
2022/09/28 07:02:50;;;;;;;734.58;404.08;;;;;;;;;;5094304;28;20081;-76
2022/09/28 07:06:05;;;;;;;;;;;;;;;;;;5110671;27;20431;-75
2022/09/28 07:11:43;;;;;;;;;;;;;;;;;;5090485;27;19922;-72
2022/09/28 07:15:02;;;;;;;;;;;;;;;;;;5109974;27;19922;-73
2022/09/28 07:17:28;;;;;;;;;;;;;;;;;;5109479;28;20288;-72
2022/09/28 07:19:56;;;;;;;;;;;;;;;;;;5109383;28;19918;-69
2022/09/28 07:22:22;;;;;;;;;;;;;;;;;;5110744;28;19953;-70
2022/09/28 07:24:48;;;;;;;;;;;;;;;;;;5107152;28;19908;-73
2022/09/28 07:27:14;;;;;;;;;;;;;;;;;;5108671;28;19908;-70
2022/09/28 07:29:40;;;;;;;;;;;;;;;;;;5106818;28;19932;-71
2022/09/28 07:32:07;;;;;;;;;;;;;;;;;;5108280;28;19915;-71
2022/09/28 07:34:42;;;;;;;;;;;;;;;;;;5107119;28;19916;-76
2022/09/28 07:39:17;;;;;;;705.25;417.45;;;;;;;;;;5108776;27;20377;-75
2022/09/28 07:41:43;;;;;;;818.88;508.17;;;;;;;;;;5109140;28;20093;-73
2022/09/28 07:44:09;;;;;;;810.88;503.23;;;;;;;;;;5108573;28;20036;-75
2022/09/28 07:46:35;;;;;;;820.42;518.33;;;;;;;;;;5110521;28;20486;-75
2022/09/28 07:49:04;;;;;;;805.63;502.63;;;;;;;;;;5108787;28;20028;-74
2022/09/28 07:51:31;;;;;;;821.50;512.60;;;;;;;;;;5108456;28;20043;-75
2022/09/28 07:53:57;;;;;;;812.67;524.42;;;;;;;;;;5103393;28;20031;-77
2022/09/28 07:56:24;;;;;;;811.53;520.17;;;;;;;;;;5089228;28;20528;-77
2022/09/28 08:01:32;;;;;;;786.08;468.50;;;;;;;;;;5067804;28;20387;-73
2022/09/28 08:03:58;;;;;;;780.58;472.60;;;;;;;;;;5064377;28;20036;-75
2022/09/28 08:06:24;;;;;;;792.45;493.50;;;;;;;;;;5057273;28;20103;-74
2022/09/28 08:10:41;;;;;;;804.58;504.75;;;;;;;;;;5101049;27;20393;-73
2022/09/28 08:13:07;;;;;;;787.72;469.70;;;;;;;;;;5105034;28;20015;-72
2022/09/28 08:15:35;;;;;;;796.95;480.55;;;;;;;;;;5104598;28;20024;-73
2022/09/28 08:18:03;;;;;;;791.67;477.33;;;;;;;;;;5106978;28;20028;-73
2022/09/28 08:23:15;;;;;;;772.38;438.27;;;;;;;;;;5106033;28;20556;-73
2022/09/28 08:26:13;;;;;;;780.55;445.08;;;;;;;;;;5108817;27;20442;-73
2022/09/28 08:28:39;;;;;;;764.70;433.55;;;;;;;;;;5101980;28;20039;-78
2022/09/28 08:31:06;;;;;;;769.92;427.80;;;;;;;;;;5095889;28;20017;-79
2022/09/28 08:35:09;;;;;;;789.15;446.58;;;;;;;;;;5107959;27;20449;-75
2022/09/28 08:39:16;;;;;;;799.72;471.48;;;;;;;;;;5087371;27;20437;-73
2022/09/28 08:41:48;;;;;;;810.95;494.00;;;;;;;;;;5077197;28;20039;-73
2022/09/28 08:48:52;;;;;;;789.17;451.10;;;;;;;;;;5108611;27;20384;-77
2022/09/28 08:52:53;;;;;;;806.25;475.75;;;;;;;;;;5068778;28;20430;-74
2022/09/28 08:55:57;;;;;;;782.17;447.58;;;;;;;;;;5109821;27;20927;-72
2022/09/28 08:58:27;;;;;;;821.88;520.97;;;;;;;;;;5110370;28;20052;-74
2022/09/28 09:00:53;;;;;;;773.90;443.05;;;;;;;;;;5110302;28;20113;-73
2022/09/28 09:03:22;;;;;;;794.13;489.83;;;;;;;;;;5110232;28;20027;-73
2022/09/28 09:06:03;;;;;;;794.78;465.60;;;;;;;;;;5110340;28;20073;-74
2022/09/28 09:08:37;;;;;;;793.50;466.23;;;;;;;;;;5109835;28;20077;-76
2022/09/28 09:11:22;;;;;;;775.63;444.67;;;;;;;;;;5108918;28;20024;-76
2022/09/28 09:16:43;;;;;;;797.08;469.73;;;;;;;;;;5110126;27;20890;-74
2022/09/28 09:19:16;;;;;;;781.38;456.25;;;;;;;;;;5047890;28;20040;-74
2022/09/28 09:22:51;;;;;;;781.40;454.10;;;;;;;;;;5109716;27;20483;-75
2022/09/28 09:25:19;;;;;;;777.70;449.23;;;;;;;;;;5085731;28;20379;-75
2022/09/28 09:28:06;;;;;;;775.83;443.70;;;;;;;;;;5066538;28;20503;-76
2022/09/28 09:30:39;;;;;;;744.38;427.25;;;;;;;;;;5049687;28;20103;-75
2022/09/28 09:33:08;;;;;;;759.60;428.67;;;;;;;;;;5067425;28;20032;-80
2022/09/28 09:37:55;;;;;;;779.47;449.95;;;;;;;;;;5110147;27;20434;-75
2022/09/28 09:42:13;;;;;;;790.50;457.50;;;;;;;;;;5110726;27;20477;-73
2022/09/28 09:44:49;;;;;;;781.10;449.92;;;;;;;;;;5110528;28;20019;-78
2022/09/28 09:47:20;;;;;;;769.47;444.95;;;;;;;;;;5108320;28;20024;-73
2022/09/28 09:49:50;;;;;;;768.13;433.30;;;;;;;;;;5106096;28;20030;-77
2022/09/28 09:52:19;;;;;;;782.65;454.27;;;;;;;;;;5102030;28;20027;-78
2022/09/28 09:54:58;;;;;;;774.45;454.20;;;;;;;;;;5086454;28;20024;-80
2022/09/28 09:59:32;;;;;;;753.33;429.98;;;;;;;;;;5106900;27;20401;-78
2022/09/28 10:02:00;;;;;;;763.50;437.15;;;;;;;;;;5105502;28;20069;-75
2022/09/28 10:05:19;;;;;;;780.85;457.58;;;;;;;;;;5107396;27;20466;-71
2022/09/28 10:07:58;;;;;;;776.53;458.65;;;;;;;;;;5099193;28;20031;-71
2022/09/28 10:10:30;;;;;;;773.83;457.27;;;;;;;;;;5089973;28;20036;-69
2022/09/28 10:12:57;;;;;;;780.83;467.98;;;;;;;;;;5089702;28;20039;-71
2022/09/28 10:15:25;;;;;;;788.30;472.25;;;;;;;;;;5097498;28;20352;-70
2022/09/28 10:18:11;;;;;;;845.75;581.08;;;;;;;;;;5107914;27;20447;-71
2022/09/28 10:20:39;;;;;;;747.40;439.23;;;;;;;;;;5108112;28;20073;-71
2022/09/28 10:23:06;;;;;;;756.13;463.17;;;;;;;;;;5106622;28;20607;-77
2022/09/28 10:25:35;;;;;;;770.53;470.77;;;;;;;;;;5102789;28;20024;-78
2022/09/28 10:28:03;;;;;;;778.15;466.20;;;;;;;;;;5106096;28;20502;-76
2022/09/28 10:30:29;;;;;;;750.53;444.90;;;;;;;;;;5105009;28;20047;-77
2022/09/28 10:32:59;;;;;;;740.65;439.27;;;;;;;;;;5098980;28;20035;-76
2022/09/28 10:35:26;;;;;;;761.33;465.17;;;;;;;;;;5096478;28;20053;-75
2022/09/28 10:38:11;;;;;;;767.88;467.58;;;;;;;;;;5107201;28;20039;-76
2022/09/28 10:40:42;;;;;;;740.95;437.52;;;;;;;;;;5105792;28;20031;-78
2022/09/28 10:43:23;;;;;;;744.72;439.77;;;;;;;;;;5105872;28;20111;-79
2022/09/28 10:45:59;;;;;;;758.40;467.85;;;;;;;;;;5105022;28;20040;-76
2022/09/28 10:48:26;;;;;;;754.30;465.33;;;;;;;;;;5105456;28;20085;-77
2022/09/28 10:51:00;;;;;;;755.38;467.77;;;;;;;;;;5104566;28;20479;-76
2022/09/28 10:55:23;;;;;;;736.95;448.55;;;;;;;;;;5065899;28;20457;-77
2022/09/28 10:57:50;;;;;;;741.80;452.73;;;;;;;;;;5057938;28;20546;-78
2022/09/28 11:00:39;;;;;;;728.95;448.02;;;;;;;;;;5047036;28;20028;-75
2022/09/28 11:03:06;;;;;;;743.67;459.23;;;;;;;;;;5056709;28;20025;-76
2022/09/28 11:05:32;;;;;;;728.47;446.58;;;;;;;;;;5047001;28;20025;-78
2022/09/28 11:07:59;;;;;;;722.15;443.20;;;;;;;;;;5048051;28;20017;-75
2022/09/28 11:10:27;;;;;;;724.47;453.08;;;;;;;;;;5046425;28;20039;-75
2022/09/28 11:12:53;;;;;;;726.50;447.50;;;;;;;;;;5048452;28;20021;-76
2022/09/28 11:15:20;;;;;;;733.33;463.00;;;;;;;;;;5056472;28;20037;-79
2022/09/28 11:17:47;;;;;;;719.83;438.67;;;;;;;;;;5067371;28;20055;-73
2022/09/28 11:20:25;;;;;;;723.45;454.80;;;;;;;;;;5067592;28;20021;-74
2022/09/28 11:22:52;;;;;;;718.75;444.45;;;;;;;;;;5066296;28;20025;-77
2022/09/28 11:25:19;;;;;;;721.05;440.38;;;;;;;;;;5066585;28;20543;-77
2022/09/28 11:27:51;;;;;;;734.80;446.23;;;;;;;;;;5064985;28;20397;-77
2022/09/28 11:30:25;;;;;;;742.38;474.42;;;;;;;;;;5065858;28;20388;-75
2022/09/28 11:32:52;;;;;;;747.95;475.27;;;;;;;;;;5065753;28;20033;-75
2022/09/28 11:35:20;;;;;;;747.60;481.95;;;;;;;;;;5066419;28;20055;-80
2022/09/28 11:37:52;;;;;;;750.83;477.90;;;;;;;;;;5066066;28;20059;-78
2022/09/28 11:42:02;;;;;;;758.40;479.98;;;;;;;;;;5110786;27;20397;-80
2022/09/28 11:44:40;;;;;;;759.00;479.95;;;;;;;;;;5110455;28;20395;-80
2022/09/28 11:47:12;;;;;;;757.95;482.23;;;;;;;;;;5111264;28;20020;-79
2022/09/28 11:49:44;;;;;;;747.17;479.95;;;;;;;;;;5110931;28;20078;-82
2022/09/28 11:52:14;;;;;;;770.47;496.08;;;;;;;;;;5110326;28;20446;-77
2022/09/28 11:54:42;;;;;;;763.63;498.50;;;;;;;;;;5111259;28;20433;-81
2022/09/28 11:57:11;;;;;;;777.17;514.47;;;;;;;;;;5111037;28;20103;-77
2022/09/28 11:59:53;;;;;;;755.97;488.58;;;;;;;;;;5110350;28;20062;-80
2022/09/28 12:02:42;;;;;;;781.67;514.97;;;;;;;;;;5110214;28;20049;-80
2022/09/28 12:05:14;;;;;;;747.50;488.40;;;;;;;;;;5099976;28;20044;-79
2022/09/28 12:07:44;;;;;;;780.17;497.10;;;;;;;;;;5110600;28;20028;-81
2022/09/28 12:10:14;;;;;;;770.88;505.13;;;;;;;;;;5110428;28;20073;-77
2022/09/28 12:12:46;;;;;;;800.42;530.97;;;;;;;;;;5110364;28;20384;-79
2022/09/28 12:15:15;;;;;;;812.92;576.05;;;;;;;;;;5110495;28;20024;-81
2022/09/28 12:18:02;;;;;;;0.93;0.60;;;;;;;;;;5110471;28;20024;-80
2022/09/28 12:20:30;;;;;;;2.10;0.73;;;;;;;;;;5109864;28;20031;-79
2022/09/28 12:23:01;;;;;;;2.28;0.75;;;;;;;;;;5109789;28;20038;-80
2022/09/28 12:25:28;;;;;;;2.83;0.60;;;;;;;;;;5108913;28;20027;-79
2022/09/28 12:27:57;;;;;;;2.83;0.63;;;;;;;;;;5109307;28;20383;-76
2022/09/28 12:30:24;;;;;;;3.33;0.60;;;;;;;;;;5109998;28;20043;-77
2022/09/28 12:32:55;;;;;;;1.33;0.60;;;;;;;;;;5109210;28;20039;-78
2022/09/28 12:35:40;;;;;;;16.02;0.77;;;;;;;;;;5108717;28;20091;-76
2022/09/28 12:38:24;;;;;;;2.92;0.60;;;;;;;;;;5103894;28;20035;-75
2022/09/28 12:40:54;;;;;;;2.05;0.63;;;;;;;;;;5108843;28;20043;-75
2022/09/28 12:43:27;;;;;;;6.10;1.00;;;;;;;;;;5106648;28;20024;-78
2022/09/28 12:46:09;;;;;;;2.17;0.70;;;;;;;;;;5109244;28;20012;-79
2022/09/28 12:48:45;;;;;;;2.20;0.40;;;;;;;;;;5109587;28;20467;-81
2022/09/28 12:51:17;;;;;;;2.58;0.90;;;;;;;;;;5107868;28;20024;-77
2022/09/28 12:53:43;;;;;;;5.85;1.80;;;;;;;;;;5095454;28;20028;-80
2022/09/28 12:56:28;;;;;;;7.25;1.15;;;;;;;;;;5096079;28;20471;-78
2022/09/28 12:59:00;;;;;;;2.95;0.60;;;;;;;;;;5095616;28;20058;-77
2022/09/28 13:01:45;;;;;;;2.65;0.50;;;;;;;;;;5094403;28;20038;-78
2022/09/28 13:04:17;;;;;;;1.58;0.52;;;;;;;;;;5095910;28;20103;-81
2022/09/28 13:06:46;;;;;;;2.90;0.85;;;;;;;;;;5095747;28;20028;-78
2022/09/28 13:09:23;;;;;;;3.03;0.60;;;;;;;;;;5091482;28;20009;-78
2022/09/28 13:12:07;;;;;;;1.67;0.70;;;;;;;;;;5092179;28;20054;-77
2022/09/28 13:14:56;;;;;;;0.45;0.35;;;;;;;;;;5094831;28;20028;-79
2022/09/28 13:17:41;;;;;;;1.33;0.40;;;;;;;;;;5093371;28;20103;-76
2022/09/28 13:20:19;;;;;;;2.65;0.80;;;;;;;;;;5093317;28;20028;-79
2022/09/28 13:22:57;;;;;;;1.75;0.52;;;;;;;;;;5091610;28;20028;-77
2022/09/28 13:25:26;;;;;;;2.00;0.50;;;;;;;;;;5093070;28;20020;-72
2022/09/28 13:27:54;;;;;;;2.25;0.77;;;;;;;;;;5095519;28;20028;-72
2022/09/28 13:30:21;;;;;;;1.73;0.60;;;;;;;;;;5095369;28;20028;-73
2022/09/28 13:32:48;;;;;;;2.00;0.40;;;;;;;;;;5095431;28;20031;-72
2022/09/28 13:35:19;;;;;;;8.23;0.82;;;;;;;;;;5095345;28;20024;-72
2022/09/28 13:37:46;;;;;;;7.43;1.40;;;;;;;;;;5094635;28;20035;-80
2022/09/28 13:40:12;;;;;;;6.70;2.10;;;;;;;;;;5111410;28;20044;-79
2022/09/28 13:42:45;;;;;;;1.85;0.65;;;;;;;;;;5102222;28;20499;-80
2022/09/28 13:45:23;;;;;;;1.10;0.32;;;;;;;;;;5095498;28;20545;-80
2022/09/28 13:48:07;;;;;;;5.60;1.40;;;;;;;;;;5094275;28;20016;-80
2022/09/28 13:50:52;;;;;;;3.40;1.33;;;;;;;;;;5095284;28;20027;-80
2022/09/28 13:53:36;;;;;;;837.00;695.75;;;;;;;;;;5094581;28;20056;-79
2022/09/28 13:56:21;;;;;;;840.60;699.47;;;;;;;;;;5091928;28;20250;-80
2022/09/28 13:58:50;;;;;;;835.95;693.92;;;;;;;;;;5094584;28;20476;-79
2022/09/28 14:01:39;;;;;;;853.80;704.22;;;;;;;;;;5094374;28;20028;-78
2022/09/28 14:04:45;;;;;;;848.00;713.00;;;;;;;;;;5081100;28;20107;-78
2022/09/28 14:07:16;;;;;;;836.05;688.20;;;;;;;;;;5090925;28;20024;-79
2022/09/28 14:09:45;;;;;;;846.30;731.00;;;;;;;;;;5091598;28;20141;-79
2022/09/28 14:12:43;;;;;;;836.75;691.95;;;;;;;;;;5088530;28;20020;-79
2022/09/28 14:15:28;;;;;;;832.05;659.53;;;;;;;;;;5089423;28;20365;-79
2022/09/28 14:18:09;;;;;;;811.75;573.33;;;;;;;;;;5093242;28;20020;-80
2022/09/28 14:20:35;;;;;;;793.92;555.35;;;;;;;;;;5092476;28;20571;-80
2022/09/28 14:23:14;;;;;;;805.10;553.10;;;;;;;;;;5093378;28;20059;-80
2022/09/28 14:25:43;;;;;;;792.03;542.15;;;;;;;;;;5094756;28;20365;-80
2022/09/28 14:28:28;;;;;;;788.38;551.00;;;;;;;;;;5094803;28;20020;-80
2022/09/28 14:30:57;;;;;;;785.47;539.20;;;;;;;;;;5094655;28;20032;-80
2022/09/28 14:33:27;;;;;;;798.78;553.08;;;;;;;;;;5094363;28;20016;-80
2022/09/28 14:35:56;;;;;;;800.15;543.83;;;;;;;;;;5094755;28;20035;-80
2022/09/28 14:41:25;;;;;;;817.42;580.97;;;;;;;;;;5093912;28;20082;-79
2022/09/28 14:43:57;;;;;;;767.92;521.72;;;;;;;;;;5094876;28;20028;-79
2022/09/28 14:46:28;;;;;;;766.25;517.63;;;;;;;;;;5094303;28;20095;-79
2022/09/28 14:48:54;;;;;;;790.58;536.28;;;;;;;;;;5094393;28;20510;-79
2022/09/28 14:51:26;;;;;;;805.80;551.65;;;;;;;;;;5094193;28;20480;-79
2022/09/28 14:53:52;;;;;;;;;;;;;;;;;;5094391;28;20497;-81
2022/09/28 14:56:19;;;;;;;782.88;538.45;;;;;;;;;;5094427;28;19908;-80
2022/09/28 14:58:46;;;;;;;807.88;578.75;;;;;;;;;;5092828;28;20099;-81
2022/09/28 15:01:18;;;;;;;787.45;549.78;;;;;;;;;;5093784;28;20369;-80
2022/09/28 15:03:46;;;;;;;812.50;564.15;;;;;;;;;;5094098;28;20053;-81
2022/09/28 15:06:15;;;;;;;803.67;575.17;;;;;;;;;;5094045;28;20507;-81
2022/09/28 15:08:42;;;;;;;810.13;555.50;;;;;;;;;;5093615;28;20024;-81
2022/09/28 15:11:16;;;;;;;813.85;563.92;;;;;;;;;;5092648;28;20035;-81
2022/09/28 15:13:43;;;;;;;812.28;573.03;;;;;;;;;;5094182;28;20032;-81
2022/09/28 15:16:10;;;;;;;767.42;527.53;;;;;;;;;;5093323;28;20047;-81
2022/09/28 15:18:49;;;;;;;796.95;556.42;;;;;;;;;;5093844;28;20031;-81
2022/09/28 15:21:15;;;;;;;790.97;537.35;;;;;;;;;;5092268;28;20036;-81
2022/09/28 15:23:42;;;;;;;821.65;610.95;;;;;;;;;;5093285;28;20031;-81
2022/09/28 15:26:26;;;;;;;813.95;556.35;;;;;;;;;;5093722;28;20027;-81
2022/09/28 15:28:52;;;;;;;800.92;546.65;;;;;;;;;;5093591;28;20040;-81
2022/09/28 15:31:20;;;;;;;791.10;524.10;;;;;;;;;;5094316;28;20048;-81
2022/09/28 15:36:34;;;;;;;791.70;525.33;;;;;;;;;;5093408;28;20042;-82
2022/09/28 15:39:05;;;;;;;780.28;507.52;;;;;;;;;;5093473;28;20020;-81
2022/09/28 15:41:31;;;;;;;758.22;498.30;;;;;;;;;;5093443;28;20043;-81
2022/09/28 15:44:09;;;;;;;748.25;481.55;;;;;;;;;;5093070;28;20508;-81
2022/09/28 15:46:37;;;;;;;710.50;450.60;;;;;;;;;;5093666;28;20029;-81
2022/09/28 15:49:04;;;;;;;740.90;473.15;;;;;;;;;;5092315;28;20030;-81
2022/09/28 15:51:32;;;;;;;713.38;452.17;;;;;;;;;;5093339;28;20024;-81
2022/09/28 15:54:01;;;;;;;709.53;429.95;;;;;;;;;;5093739;28;20016;-81
2022/09/28 15:56:28;;;;;;;706.45;434.50;;;;;;;;;;5093567;28;20026;-81
2022/09/28 15:59:25;;;;;;;726.03;449.33;;;;;;;;;;5071089;28;20110;-80
2022/09/28 16:02:02;;;;;;;710.90;434.45;;;;;;;;;;5050717;28;20026;-80
2022/09/28 16:04:39;;;;;;;716.42;436.35;;;;;;;;;;5050806;28;20057;-80
2022/09/28 16:08:41;;;;;;;691.30;390.25;;;;;;;;;;5126911;27;20522;-79
2022/09/28 16:11:20;;;;;;;714.95;417.30;;;;;;;;;;5134669;28;20039;-80
2022/09/28 16:13:46;;;;;;;699.95;391.83;;;;;;;;;;5134187;28;20038;-80
2022/09/28 16:16:14;;;;;;;706.83;422.52;;;;;;;;;;5114484;28;20032;-80